sensor_id;sensor_type;location;lat;lon;timestamp;pressure;altitude;pressure_sealevel;temperature;humidity
2681;BME280;1350;42.134;24.708;2022-07-09T00:01:04;99078.34;;;20.54;100.00
2681;BME280;1350;42.134;24.708;2022-07-09T00:03:33;99069.50;;;20.61;100.00
2681;BME280;1350;42.134;24.708;2022-07-09T00:05:59;99069.75;;;20.76;100.00
2681;BME280;1350;42.134;24.708;2022-07-09T00:08:28;99064.81;;;20.63;100.00
2681;BME280;1350;42.134;24.708;2022-07-09T00:10:55;99065.59;;;20.56;100.00
2681;BME280;1350;42.134;24.708;2022-07-09T00:13:21;99057.91;;;20.43;100.00
2681;BME280;1350;42.134;24.708;2022-07-09T00:15:48;99063.03;;;20.37;100.00
2681;BME280;1350;42.134;24.708;2022-07-09T00:18:15;99054.72;;;20.30;100.00
2681;BME280;1350;42.134;24.708;2022-07-09T00:20:43;99049.09;;;20.24;100.00
2681;BME280;1350;42.134;24.708;2022-07-09T00:23:10;99050.44;;;20.20;100.00
2681;BME280;1350;42.134;24.708;2022-07-09T00:25:37;99060.03;;;20.22;100.00
2681;BME280;1350;42.134;24.708;2022-07-09T00:28:04;99058.03;;;20.24;100.00
2681;BME280;1350;42.134;24.708;2022-07-09T00:30:30;99053.03;;;20.29;100.00
2681;BME280;1350;42.134;24.708;2022-07-09T00:32:57;99052.66;;;20.24;100.00
2681;BME280;1350;42.134;24.708;2022-07-09T00:35:24;99049.50;;;20.29;100.00
2681;BME280;1350;42.134;24.708;2022-07-09T00:37:52;99051.66;;;20.43;100.00
2681;BME280;1350;42.134;24.708;2022-07-09T00:40:19;99053.34;;;20.44;100.00
2681;BME280;1350;42.134;24.708;2022-07-09T00:42:46;99051.41;;;20.36;100.00
2681;BME280;1350;42.134;24.708;2022-07-09T00:45:13;99050.34;;;20.29;100.00
2681;BME280;1350;42.134;24.708;2022-07-09T00:47:39;99048.19;;;20.15;100.00
2681;BME280;1350;42.134;24.708;2022-07-09T00:50:07;99047.59;;;20.11;100.00
2681;BME280;1350;42.134;24.708;2022-07-09T00:52:35;99053.13;;;20.20;100.00
2681;BME280;1350;42.134;24.708;2022-07-09T00:55:06;99049.31;;;20.13;100.00
2681;BME280;1350;42.134;24.708;2022-07-09T00:57:33;99048.78;;;20.09;100.00
2681;BME280;1350;42.134;24.708;2022-07-09T01:00:01;99047.75;;;20.10;100.00
2681;BME280;1350;42.134;24.708;2022-07-09T01:02:28;99044.53;;;20.06;100.00
2681;BME280;1350;42.134;24.708;2022-07-09T01:04:55;99035.78;;;20.04;100.00
2681;BME280;1350;42.134;24.708;2022-07-09T01:07:22;99035.31;;;20.09;100.00
2681;BME280;1350;42.134;24.708;2022-07-09T01:09:49;99028.00;;;20.01;100.00
2681;BME280;1350;42.134;24.708;2022-07-09T01:12:17;99024.47;;;20.01;100.00
2681;BME280;1350;42.134;24.708;2022-07-09T01:14:44;99011.09;;;20.09;100.00
2681;BME280;1350;42.134;24.708;2022-07-09T01:17:10;99017.56;;;20.16;100.00
2681;BME280;1350;42.134;24.708;2022-07-09T01:19:37;99024.19;;;20.22;100.00
2681;BME280;1350;42.134;24.708;2022-07-09T01:22:05;99027.06;;;20.20;100.00
2681;BME280;1350;42.134;24.708;2022-07-09T01:24:33;99028.09;;;20.27;100.00
2681;BME280;1350;42.134;24.708;2022-07-09T01:27:00;99026.44;;;20.26;100.00
2681;BME280;1350;42.134;24.708;2022-07-09T01:29:27;99027.72;;;20.22;100.00
2681;BME280;1350;42.134;24.708;2022-07-09T01:31:54;99023.59;;;20.28;100.00
2681;BME280;1350;42.134;24.708;2022-07-09T01:34:21;99028.72;;;20.21;100.00
2681;BME280;1350;42.134;24.708;2022-07-09T01:36:47;99038.19;;;20.25;100.00
2681;BME280;1350;42.134;24.708;2022-07-09T01:39:15;99044.25;;;20.27;100.00
2681;BME280;1350;42.134;24.708;2022-07-09T01:41:42;99037.72;;;20.30;100.00
2681;BME280;1350;42.134;24.708;2022-07-09T01:44:09;99038.88;;;20.27;100.00
2681;BME280;1350;42.134;24.708;2022-07-09T01:46:36;99045.91;;;20.20;100.00
2681;BME280;1350;42.134;24.708;2022-07-09T01:49:02;99041.41;;;20.29;100.00
2681;BME280;1350;42.134;24.708;2022-07-09T01:51:29;99047.81;;;20.28;100.00
2681;BME280;1350;42.134;24.708;2022-07-09T01:53:57;99051.72;;;20.33;100.00
2681;BME280;1350;42.134;24.708;2022-07-09T01:56:25;99046.88;;;20.37;100.00
2681;BME280;1350;42.134;24.708;2022-07-09T01:58:52;99046.03;;;20.36;100.00
2681;BME280;1350;42.134;24.708;2022-07-09T02:01:19;99047.28;;;20.42;100.00
2681;BME280;1350;42.134;24.708;2022-07-09T02:03:45;99045.78;;;20.47;100.00
2681;BME280;1350;42.134;24.708;2022-07-09T02:06:12;99046.25;;;20.60;100.00
2681;BME280;1350;42.134;24.708;2022-07-09T02:08:39;99044.19;;;20.54;100.00
2681;BME280;1350;42.134;24.708;2022-07-09T02:11:06;99039.47;;;20.56;100.00
2681;BME280;1350;42.134;24.708;2022-07-09T02:13:34;99044.28;;;20.45;100.00
2681;BME280;1350;42.134;24.708;2022-07-09T02:16:01;99035.50;;;20.43;100.00
2681;BME280;1350;42.134;24.708;2022-07-09T02:18:28;99035.81;;;20.40;100.00
2681;BME280;1350;42.134;24.708;2022-07-09T02:20:55;99042.34;;;20.37;100.00
2681;BME280;1350;42.134;24.708;2022-07-09T02:23:22;99042.66;;;20.34;100.00
2681;BME280;1350;42.134;24.708;2022-07-09T02:25:49;99036.28;;;20.35;100.00
2681;BME280;1350;42.134;24.708;2022-07-09T02:28:15;99033.88;;;20.32;100.00
2681;BME280;1350;42.134;24.708;2022-07-09T02:30:44;99036.19;;;20.27;100.00
2681;BME280;1350;42.134;24.708;2022-07-09T02:33:11;99030.41;;;20.22;100.00
2681;BME280;1350;42.134;24.708;2022-07-09T02:35:37;99039.97;;;20.17;100.00
2681;BME280;1350;42.134;24.708;2022-07-09T02:38:04;99030.03;;;20.17;100.00
2681;BME280;1350;42.134;24.708;2022-07-09T02:40:31;99040.81;;;20.17;100.00
2681;BME280;1350;42.134;24.708;2022-07-09T02:42:58;99030.03;;;20.17;100.00
2681;BME280;1350;42.134;24.708;2022-07-09T02:45:25;99044.03;;;20.21;100.00
2681;BME280;1350;42.134;24.708;2022-07-09T02:47:53;99037.50;;;20.23;100.00
2681;BME280;1350;42.134;24.708;2022-07-09T02:50:20;99039.34;;;20.23;100.00
2681;BME280;1350;42.134;24.708;2022-07-09T02:52:46;99048.59;;;20.20;100.00
2681;BME280;1350;42.134;24.708;2022-07-09T02:55:13;99041.94;;;20.15;100.00
2681;BME280;1350;42.134;24.708;2022-07-09T02:57:40;99037.97;;;20.19;100.00
2681;BME280;1350;42.134;24.708;2022-07-09T03:00:08;99034.97;;;20.22;100.00
2681;BME280;1350;42.134;24.708;2022-07-09T03:02:34;99034.66;;;20.25;100.00
2681;BME280;1350;42.134;24.708;2022-07-09T03:05:03;99032.78;;;20.25;100.00
2681;BME280;1350;42.134;24.708;2022-07-09T03:07:30;99028.09;;;20.27;100.00
2681;BME280;1350;42.134;24.708;2022-07-09T03:09:57;99025.25;;;20.29;100.00
2681;BME280;1350;42.134;24.708;2022-07-09T03:12:23;99024.25;;;20.30;100.00
2681;BME280;1350;42.134;24.708;2022-07-09T03:14:50;99020.41;;;20.32;100.00
2681;BME280;1350;42.134;24.708;2022-07-09T03:17:17;99019.09;;;20.36;100.00
2681;BME280;1350;42.134;24.708;2022-07-09T03:19:44;99025.34;;;20.37;100.00
2681;BME280;1350;42.134;24.708;2022-07-09T03:22:12;99019.47;;;20.41;100.00
2681;BME280;1350;42.134;24.708;2022-07-09T03:24:39;99021.16;;;20.42;100.00
2681;BME280;1350;42.134;24.708;2022-07-09T03:27:06;99025.03;;;20.57;100.00
2681;BME280;1350;42.134;24.708;2022-07-09T03:29:33;99029.09;;;20.61;100.00
2681;BME280;1350;42.134;24.708;2022-07-09T03:31:59;99021.72;;;20.71;100.00
2681;BME280;1350;42.134;24.708;2022-07-09T03:34:27;99020.44;;;20.75;100.00
2681;BME280;1350;42.134;24.708;2022-07-09T03:36:53;99024.72;;;20.86;100.00
2681;BME280;1350;42.134;24.708;2022-07-09T03:39:21;99029.41;;;21.01;100.00
2681;BME280;1350;42.134;24.708;2022-07-09T03:41:48;99025.78;;;21.18;100.00
2681;BME280;1350;42.134;24.708;2022-07-09T03:44:15;99027.91;;;21.32;100.00
2681;BME280;1350;42.134;24.708;2022-07-09T03:46:42;99028.00;;;21.56;100.00
2681;BME280;1350;42.134;24.708;2022-07-09T03:49:09;99026.19;;;21.73;100.00
2681;BME280;1350;42.134;24.708;2022-07-09T03:51:36;99027.78;;;21.76;100.00
2681;BME280;1350;42.134;24.708;2022-07-09T03:54:03;99026.63;;;21.86;100.00
2681;BME280;1350;42.134;24.708;2022-07-09T03:56:31;99029.00;;;21.97;100.00
2681;BME280;1350;42.134;24.708;2022-07-09T03:58:58;99032.38;;;21.99;100.00
2681;BME280;1350;42.134;24.708;2022-07-09T04:01:24;99045.22;;;22.05;100.00
2681;BME280;1350;42.134;24.708;2022-07-09T04:03:51;99043.00;;;22.01;100.00
2681;BME280;1350;42.134;24.708;2022-07-09T04:06:18;99045.03;;;21.99;100.00
2681;BME280;1350;42.134;24.708;2022-07-09T04:08:45;99038.13;;;22.04;100.00
2681;BME280;1350;42.134;24.708;2022-07-09T04:11:12;99041.84;;;22.11;100.00
2681;BME280;1350;42.134;24.708;2022-07-09T04:13:40;99042.38;;;22.23;100.00
2681;BME280;1350;42.134;24.708;2022-07-09T04:16:07;99046.44;;;22.19;100.00
2681;BME280;1350;42.134;24.708;2022-07-09T04:18:34;99047.78;;;22.23;100.00
2681;BME280;1350;42.134;24.708;2022-07-09T04:21:01;99048.13;;;22.36;100.00
2681;BME280;1350;42.134;24.708;2022-07-09T04:23:28;99054.03;;;22.39;100.00
2681;BME280;1350;42.134;24.708;2022-07-09T04:25:54;99049.84;;;22.37;100.00
2681;BME280;1350;42.134;24.708;2022-07-09T04:28:21;99042.41;;;22.31;100.00
2681;BME280;1350;42.134;24.708;2022-07-09T04:30:49;99048.81;;;22.38;100.00
2681;BME280;1350;42.134;24.708;2022-07-09T04:33:16;99052.88;;;22.50;100.00
2681;BME280;1350;42.134;24.708;2022-07-09T04:35:43;99057.97;;;22.53;100.00
2681;BME280;1350;42.134;24.708;2022-07-09T04:38:11;99050.38;;;22.72;100.00
2681;BME280;1350;42.134;24.708;2022-07-09T04:40:38;99052.22;;;22.56;100.00
2681;BME280;1350;42.134;24.708;2022-07-09T04:43:05;99058.16;;;22.59;100.00
2681;BME280;1350;42.134;24.708;2022-07-09T04:45:32;99050.38;;;22.56;100.00
2681;BME280;1350;42.134;24.708;2022-07-09T04:48:01;99049.84;;;22.53;100.00
2681;BME280;1350;42.134;24.708;2022-07-09T04:50:28;99050.50;;;22.47;100.00
2681;BME280;1350;42.134;24.708;2022-07-09T04:52:54;99052.53;;;22.37;100.00
2681;BME280;1350;42.134;24.708;2022-07-09T04:55:21;99050.34;;;22.32;100.00
2681;BME280;1350;42.134;24.708;2022-07-09T04:57:48;99055.75;;;22.32;100.00
2681;BME280;1350;42.134;24.708;2022-07-09T05:00:16;99053.19;;;22.39;100.00
2681;BME280;1350;42.134;24.708;2022-07-09T05:02:43;99043.75;;;22.43;100.00
2681;BME280;1350;42.134;24.708;2022-07-09T05:05:12;99051.88;;;22.59;100.00
2681;BME280;1350;42.134;24.708;2022-07-09T05:07:39;99051.38;;;22.63;100.00
2681;BME280;1350;42.134;24.708;2022-07-09T05:10:06;99045.16;;;22.55;100.00
2681;BME280;1350;42.134;24.708;2022-07-09T05:12:34;99042.44;;;22.55;100.00
2681;BME280;1350;42.134;24.708;2022-07-09T05:15:02;99052.56;;;22.53;100.00
2681;BME280;1350;42.134;24.708;2022-07-09T05:17:33;99055.44;;;22.59;100.00
2681;BME280;1350;42.134;24.708;2022-07-09T05:20:01;99059.50;;;22.55;100.00
2681;BME280;1350;42.134;24.708;2022-07-09T05:22:30;99061.53;;;22.53;100.00
2681;BME280;1350;42.134;24.708;2022-07-09T05:24:57;99058.28;;;22.50;100.00
2681;BME280;1350;42.134;24.708;2022-07-09T05:27:24;99063.38;;;22.53;100.00
2681;BME280;1350;42.134;24.708;2022-07-09T05:29:51;99059.00;;;22.60;100.00
2681;BME280;1350;42.134;24.708;2022-07-09T05:32:18;99057.81;;;22.54;100.00
2681;BME280;1350;42.134;24.708;2022-07-09T05:34:45;99058.84;;;22.61;100.00
2681;BME280;1350;42.134;24.708;2022-07-09T05:37:12;99061.03;;;22.58;100.00
2681;BME280;1350;42.134;24.708;2022-07-09T05:39:41;99069.31;;;22.64;100.00
2681;BME280;1350;42.134;24.708;2022-07-09T05:42:07;99061.53;;;22.77;100.00
2681;BME280;1350;42.134;24.708;2022-07-09T05:44:34;99059.66;;;22.78;100.00
2681;BME280;1350;42.134;24.708;2022-07-09T05:47:01;99062.72;;;22.91;100.00
2681;BME280;1350;42.134;24.708;2022-07-09T05:49:28;99062.88;;;22.89;100.00
2681;BME280;1350;42.134;24.708;2022-07-09T05:51:55;99063.38;;;22.93;100.00
2681;BME280;1350;42.134;24.708;2022-07-09T05:54:22;99063.88;;;22.96;100.00
2681;BME280;1350;42.134;24.708;2022-07-09T05:56:50;99060.31;;;22.96;100.00
2681;BME280;1350;42.134;24.708;2022-07-09T05:59:17;99059.16;;;22.98;100.00
2681;BME280;1350;42.134;24.708;2022-07-09T06:01:43;99061.34;;;22.95;100.00
2681;BME280;1350;42.134;24.708;2022-07-09T06:04:10;99063.72;;;22.90;100.00
2681;BME280;1350;42.134;24.708;2022-07-09T06:06:37;99057.31;;;22.91;100.00
2681;BME280;1350;42.134;24.708;2022-07-09T06:09:04;99054.78;;;22.89;100.00
2681;BME280;1350;42.134;24.708;2022-07-09T06:11:30;99054.25;;;22.94;100.00
2681;BME280;1350;42.134;24.708;2022-07-09T06:13:59;99050.19;;;22.98;100.00
2681;BME280;1350;42.134;24.708;2022-07-09T06:16:26;99063.03;;;22.96;100.00
2681;BME280;1350;42.134;24.708;2022-07-09T06:18:52;99052.03;;;23.05;100.00
2681;BME280;1350;42.134;24.708;2022-07-09T06:21:19;99050.53;;;23.11;100.00
2681;BME280;1350;42.134;24.708;2022-07-09T06:23:46;99048.31;;;23.06;100.00
2681;BME280;1350;42.134;24.708;2022-07-09T06:26:13;99047.47;;;23.06;100.00
2681;BME280;1350;42.134;24.708;2022-07-09T06:28:39;99042.72;;;23.16;100.00
2681;BME280;1350;42.134;24.708;2022-07-09T06:31:08;99041.69;;;23.25;100.00
2681;BME280;1350;42.134;24.708;2022-07-09T06:33:34;99046.94;;;23.26;100.00
2681;BME280;1350;42.134;24.708;2022-07-09T06:36:01;99037.13;;;23.34;100.00
2681;BME280;1350;42.134;24.708;2022-07-09T06:38:28;99035.88;;;23.52;100.00
2681;BME280;1350;42.134;24.708;2022-07-09T06:40:55;99031.72;;;23.72;100.00
2681;BME280;1350;42.134;24.708;2022-07-09T06:43:22;99031.19;;;23.77;100.00
2681;BME280;1350;42.134;24.708;2022-07-09T06:45:49;99024.19;;;23.90;100.00
2681;BME280;1350;42.134;24.708;2022-07-09T06:48:17;99028.94;;;23.88;100.00
2681;BME280;1350;42.134;24.708;2022-07-09T06:50:44;99029.63;;;23.82;100.00
2681;BME280;1350;42.134;24.708;2022-07-09T06:53:10;99026.75;;;23.84;100.00
2681;BME280;1350;42.134;24.708;2022-07-09T06:55:37;99023.16;;;23.91;100.00
2681;BME280;1350;42.134;24.708;2022-07-09T06:58:04;99026.88;;;23.98;100.00
2681;BME280;1350;42.134;24.708;2022-07-09T07:00:31;99019.81;;;23.89;100.00
2681;BME280;1350;42.134;24.708;2022-07-09T07:02:59;99025.56;;;23.86;100.00
2681;BME280;1350;42.134;24.708;2022-07-09T07:05:27;99019.50;;;23.76;100.00
2681;BME280;1350;42.134;24.708;2022-07-09T07:07:54;99014.50;;;23.65;100.00
2681;BME280;1350;42.134;24.708;2022-07-09T07:10:21;99012.63;;;23.66;100.00
2681;BME280;1350;42.134;24.708;2022-07-09T07:12:47;99006.91;;;23.61;100.00
2681;BME280;1350;42.134;24.708;2022-07-09T07:15:14;99010.09;;;23.64;100.00
2681;BME280;1350;42.134;24.708;2022-07-09T07:17:41;99015.00;;;23.69;100.00
2681;BME280;1350;42.134;24.708;2022-07-09T07:20:09;99018.72;;;23.68;100.00
2681;BME280;1350;42.134;24.708;2022-07-09T07:22:37;99016.84;;;23.68;100.00
2681;BME280;1350;42.134;24.708;2022-07-09T07:25:05;99027.28;;;23.79;100.00
2681;BME280;1350;42.134;24.708;2022-07-09T07:27:31;99028.56;;;23.91;100.00
2681;BME280;1350;42.134;24.708;2022-07-09T07:29:58;99026.53;;;23.93;100.00
2681;BME280;1350;42.134;24.708;2022-07-09T07:32:25;99033.97;;;23.99;100.00
2681;BME280;1350;42.134;24.708;2022-07-09T07:34:52;99033.41;;;24.12;100.00
2681;BME280;1350;42.134;24.708;2022-07-09T07:37:19;99042.19;;;24.14;100.00
2681;BME280;1350;42.134;24.708;2022-07-09T07:39:47;99029.25;;;24.01;100.00
2681;BME280;1350;42.134;24.708;2022-07-09T07:42:14;99038.81;;;24.12;100.00
2681;BME280;1350;42.134;24.708;2022-07-09T07:44:41;99033.94;;;24.07;100.00
2681;BME280;1350;42.134;24.708;2022-07-09T07:47:08;99027.88;;;24.28;100.00
2681;BME280;1350;42.134;24.708;2022-07-09T07:49:35;99030.28;;;24.45;100.00
2681;BME280;1350;42.134;24.708;2022-07-09T07:52:01;99035.63;;;24.99;100.00
2681;BME280;1350;42.134;24.708;2022-07-09T07:54:28;99033.38;;;25.31;100.00
2681;BME280;1350;42.134;24.708;2022-07-09T07:56:57;99030.78;;;25.67;100.00
2681;BME280;1350;42.134;24.708;2022-07-09T07:59:23;99029.19;;;26.01;100.00
2681;BME280;1350;42.134;24.708;2022-07-09T08:01:50;99035.13;;;26.26;100.00
2681;BME280;1350;42.134;24.708;2022-07-09T08:04:17;99030.97;;;26.51;96.99
2681;BME280;1350;42.134;24.708;2022-07-09T08:06:44;99031.41;;;26.69;96.15
2681;BME280;1350;42.134;24.708;2022-07-09T08:09:11;99021.34;;;26.70;91.69
2681;BME280;1350;42.134;24.708;2022-07-09T08:11:38;99029.69;;;26.89;92.77
2681;BME280;1350;42.134;24.708;2022-07-09T08:14:06;99019.50;;;26.34;90.90
2681;BME280;1350;42.134;24.708;2022-07-09T08:16:34;99026.25;;;26.38;92.65
2681;BME280;1350;42.134;24.708;2022-07-09T08:19:01;99021.34;;;26.70;88.58
2681;BME280;1350;42.134;24.708;2022-07-09T08:21:28;99030.19;;;26.57;88.13
2681;BME280;1350;42.134;24.708;2022-07-09T08:23:55;99029.88;;;26.67;88.03
2681;BME280;1350;42.134;24.708;2022-07-09T08:26:23;99036.38;;;26.66;90.03
2681;BME280;1350;42.134;24.708;2022-07-09T08:28:50;99016.78;;;26.56;88.79
2681;BME280;1350;42.134;24.708;2022-07-09T08:31:20;99024.63;;;26.44;91.16
2681;BME280;1350;42.134;24.708;2022-07-09T08:33:47;99016.84;;;26.20;90.64
2681;BME280;1350;42.134;24.708;2022-07-09T08:36:14;99024.28;;;26.11;91.65
2681;BME280;1350;42.134;24.708;2022-07-09T08:38:41;99025.63;;;26.01;92.67
2681;BME280;1350;42.134;24.708;2022-07-09T08:41:08;99026.66;;;26.00;95.12
2681;BME280;1350;42.134;24.708;2022-07-09T08:43:37;99031.50;;;25.90;96.91
2681;BME280;1350;42.134;24.708;2022-07-09T08:46:05;99026.69;;;25.71;95.48
2681;BME280;1350;42.134;24.708;2022-07-09T08:48:34;99029.88;;;25.60;95.51
2681;BME280;1350;42.134;24.708;2022-07-09T08:51:02;99022.09;;;25.57;96.79
2681;BME280;1350;42.134;24.708;2022-07-09T08:53:29;99020.41;;;25.56;98.88
2681;BME280;1350;42.134;24.708;2022-07-09T08:55:57;99018.25;;;25.51;98.61
2681;BME280;1350;42.134;24.708;2022-07-09T08:58:24;99012.00;;;25.51;99.40
2681;BME280;1350;42.134;24.708;2022-07-09T09:00:51;99008.91;;;25.54;98.57
2681;BME280;1350;42.134;24.708;2022-07-09T09:03:18;99005.81;;;25.57;97.61
2681;BME280;1350;42.134;24.708;2022-07-09T09:06:00;99010.88;;;25.45;96.16
2681;BME280;1350;42.134;24.708;2022-07-09T09:08:27;99012.47;;;25.40;95.17
2681;BME280;1350;42.134;24.708;2022-07-09T09:10:54;99017.22;;;25.38;95.92
2681;BME280;1350;42.134;24.708;2022-07-09T09:13:21;99016.09;;;25.47;96.12
2681;BME280;1350;42.134;24.708;2022-07-09T09:15:47;99016.28;;;25.60;94.95
2681;BME280;1350;42.134;24.708;2022-07-09T09:18:14;99008.91;;;25.54;94.03
2681;BME280;1350;42.134;24.708;2022-07-09T09:20:45;99010.19;;;25.58;93.80
2681;BME280;1350;42.134;24.708;2022-07-09T09:23:16;99005.88;;;25.78;93.96
2681;BME280;1350;42.134;24.708;2022-07-09T09:25:43;99014.63;;;25.94;93.18
2681;BME280;1350;42.134;24.708;2022-07-09T09:28:11;99018.75;;;26.05;91.43
2681;BME280;1350;42.134;24.708;2022-07-09T09:30:42;99022.88;;;25.86;93.98
2681;BME280;1350;42.134;24.708;2022-07-09T09:33:13;99017.66;;;25.99;95.23
2681;BME280;1350;42.134;24.708;2022-07-09T09:35:42;99016.81;;;25.99;92.99
2681;BME280;1350;42.134;24.708;2022-07-09T09:38:11;99020.31;;;25.78;93.02
2681;BME280;1350;42.134;24.708;2022-07-09T09:40:38;99022.63;;;25.81;92.53
2681;BME280;1350;42.134;24.708;2022-07-09T09:43:06;99014.50;;;25.67;92.02
2681;BME280;1350;42.134;24.708;2022-07-09T09:45:35;99020.69;;;25.61;94.39
2681;BME280;1350;42.134;24.708;2022-07-09T09:48:03;99022.44;;;25.68;94.32
2681;BME280;1350;42.134;24.708;2022-07-09T09:50:32;99016.28;;;25.60;93.69
2681;BME280;1350;42.134;24.708;2022-07-09T09:53:00;99022.47;;;25.39;92.50
2681;BME280;1350;42.134;24.708;2022-07-09T09:55:30;99016.66;;;25.28;94.63
2681;BME280;1350;42.134;24.708;2022-07-09T09:57:57;99022.00;;;25.36;96.28
2681;BME280;1350;42.134;24.708;2022-07-09T10:00:25;99010.75;;;25.39;98.63
2681;BME280;1350;42.134;24.708;2022-07-09T10:02:52;99010.75;;;25.24;98.63
2681;BME280;1350;42.134;24.708;2022-07-09T10:05:19;99012.50;;;25.03;99.08
2681;BME280;1350;42.134;24.708;2022-07-09T10:07:46;99013.91;;;24.99;100.00
2681;BME280;1350;42.134;24.708;2022-07-09T10:10:17;99012.41;;;24.96;99.86
2681;BME280;1350;42.134;24.708;2022-07-09T10:12:46;99008.84;;;24.96;100.00
2681;BME280;1350;42.134;24.708;2022-07-09T10:15:23;99007.63;;;24.98;100.00
2681;BME280;1350;42.134;24.708;2022-07-09T10:17:52;99012.13;;;25.06;99.64
2681;BME280;1350;42.134;24.708;2022-07-09T10:20:29;99014.38;;;25.02;100.00
2681;BME280;1350;42.134;24.708;2022-07-09T10:22:57;99005.47;;;25.08;100.00
2681;BME280;1350;42.134;24.708;2022-07-09T10:25:28;99005.22;;;25.18;97.83
2681;BME280;1350;42.134;24.708;2022-07-09T10:27:57;99004.28;;;25.11;98.82
2681;BME280;1350;42.134;24.708;2022-07-09T10:30:25;98999.50;;;25.13;97.50
2681;BME280;1350;42.134;24.708;2022-07-09T10:33:03;99006.34;;;25.09;97.07
2681;BME280;1350;42.134;24.708;2022-07-09T10:35:30;99006.81;;;25.12;96.59
2681;BME280;1350;42.134;24.708;2022-07-09T10:37:56;99003.13;;;25.05;95.95
2681;BME280;1350;42.134;24.708;2022-07-09T10:40:24;99004.28;;;25.11;95.54
2681;BME280;1350;42.134;24.708;2022-07-09T10:43:03;98999.78;;;25.03;94.77
2681;BME280;1350;42.134;24.708;2022-07-09T10:45:36;98997.91;;;25.04;94.35
2681;BME280;1350;42.134;24.708;2022-07-09T10:48:04;98996.22;;;25.17;96.28
2681;BME280;1350;42.134;24.708;2022-07-09T10:50:33;98992.41;;;25.12;96.21
2681;BME280;1350;42.134;24.708;2022-07-09T10:53:02;99004.53;;;25.16;94.32
2681;BME280;1350;42.134;24.708;2022-07-09T10:55:29;98999.13;;;25.16;94.42
2681;BME280;1350;42.134;24.708;2022-07-09T10:57:57;98994.28;;;25.26;94.61
2681;BME280;1350;42.134;24.708;2022-07-09T11:00:27;99003.66;;;25.38;95.68
2681;BME280;1350;42.134;24.708;2022-07-09T11:02:55;99000.94;;;25.38;94.67
2681;BME280;1350;42.134;24.708;2022-07-09T11:05:23;98998.50;;;25.43;95.16
2681;BME280;1350;42.134;24.708;2022-07-09T11:08:00;98990.47;;;25.49;95.20
2681;BME280;1350;42.134;24.708;2022-07-09T11:10:28;98993.25;;;25.56;97.30
2681;BME280;1350;42.134;24.708;2022-07-09T11:12:56;98998.97;;;25.61;98.82
2681;BME280;1350;42.134;24.708;2022-07-09T11:15:26;98993.31;;;25.77;99.08
2681;BME280;1350;42.134;24.708;2022-07-09T11:17:54;98999.84;;;25.82;98.61
2681;BME280;1350;42.134;24.708;2022-07-09T11:20:21;98995.84;;;25.78;95.50
2681;BME280;1350;42.134;24.708;2022-07-09T11:22:49;98991.75;;;25.68;94.37
2681;BME280;1350;42.134;24.708;2022-07-09T11:25:16;98987.34;;;25.67;91.29
2681;BME280;1350;42.134;24.708;2022-07-09T11:27:44;98985.56;;;25.59;93.00
2681;BME280;1350;42.134;24.708;2022-07-09T11:30:14;98983.13;;;25.64;93.14
2681;BME280;1350;42.134;24.708;2022-07-09T11:32:42;98989.56;;;25.63;94.58
2681;BME280;1350;42.134;24.708;2022-07-09T11:35:09;98985.00;;;25.64;96.83
2681;BME280;1350;42.134;24.708;2022-07-09T11:37:36;98986.13;;;25.69;96.59
2681;BME280;1350;42.134;24.708;2022-07-09T11:40:04;98979.00;;;25.68;93.90
2681;BME280;1350;42.134;24.708;2022-07-09T11:42:31;98986.56;;;25.73;93.09
2681;BME280;1350;42.134;24.708;2022-07-09T11:44:59;98988.38;;;25.66;94.90
2681;BME280;1350;42.134;24.708;2022-07-09T11:47:34;98988.38;;;25.66;96.76
2681;BME280;1350;42.134;24.708;2022-07-09T11:50:07;98988.66;;;25.71;97.99
2681;BME280;1350;42.134;24.708;2022-07-09T11:52:34;98987.25;;;25.60;100.00
2681;BME280;1350;42.134;24.708;2022-07-09T11:55:02;98983.13;;;25.50;99.36
2681;BME280;1350;42.134;24.708;2022-07-09T11:57:31;98981.75;;;25.39;99.72
2681;BME280;1350;42.134;24.708;2022-07-09T11:59:58;98989.63;;;25.49;97.78
2681;BME280;1350;42.134;24.708;2022-07-09T12:02:28;98995.41;;;25.46;95.70
2681;BME280;1350;42.134;24.708;2022-07-09T12:04:55;98990.75;;;25.40;95.14
2681;BME280;1350;42.134;24.708;2022-07-09T12:07:24;98990.47;;;25.35;94.21
2681;BME280;1350;42.134;24.708;2022-07-09T12:09:57;98991.94;;;25.23;94.77
2681;BME280;1350;42.134;24.708;2022-07-09T12:12:25;98989.50;;;25.28;95.83
2681;BME280;1350;42.134;24.708;2022-07-09T12:14:52;98990.47;;;25.35;97.47
2681;BME280;1350;42.134;24.708;2022-07-09T12:17:22;98982.13;;;25.36;98.97
2681;BME280;1350;42.134;24.708;2022-07-09T12:19:49;98987.81;;;25.27;99.85
2681;BME280;1350;42.134;24.708;2022-07-09T12:22:16;98979.19;;;25.09;100.00
2681;BME280;1350;42.134;24.708;2022-07-09T12:24:44;98982.38;;;24.98;100.00
2681;BME280;1350;42.134;24.708;2022-07-09T12:27:11;98977.69;;;24.92;100.00
2681;BME280;1350;42.134;24.708;2022-07-09T12:29:37;98975.94;;;24.99;100.00
2681;BME280;1350;42.134;24.708;2022-07-09T12:32:05;98974.88;;;25.00;100.00
2681;BME280;1350;42.134;24.708;2022-07-09T12:34:32;98978.97;;;24.96;100.00
2681;BME280;1350;42.134;24.708;2022-07-09T12:36:59;98980.03;;;24.95;100.00
2681;BME280;1350;42.134;24.708;2022-07-09T12:39:25;98981.06;;;24.94;100.00
2681;BME280;1350;42.134;24.708;2022-07-09T12:41:54;98986.88;;;24.91;100.00
2681;BME280;1350;42.134;24.708;2022-07-09T12:44:21;98987.50;;;24.92;100.00
2681;BME280;1350;42.134;24.708;2022-07-09T12:46:48;98991.31;;;24.83;100.00
2681;BME280;1350;42.134;24.708;2022-07-09T12:49:15;98991.56;;;24.74;100.00
2681;BME280;1350;42.134;24.708;2022-07-09T12:51:41;98990.31;;;24.62;100.00
2681;BME280;1350;42.134;24.708;2022-07-09T12:54:08;98992.38;;;24.60;100.00
2681;BME280;1350;42.134;24.708;2022-07-09T12:56:35;98984.38;;;24.44;100.00
2681;BME280;1350;42.134;24.708;2022-07-09T12:59:03;98979.13;;;24.42;100.00
2681;BME280;1350;42.134;24.708;2022-07-09T13:01:30;98976.13;;;24.37;100.00
2681;BME280;1350;42.134;24.708;2022-07-09T13:03:57;98969.03;;;24.36;100.00